sensor_id;sensor_type;location;lat;lon;timestamp;P1;durP1;ratioP1;P2;durP2;ratioP2
69779;SDS011;57052;55.602;38.096;2022-09-09T00:01:57;3.80;;;2.03;;
69779;SDS011;57052;55.602;38.096;2022-09-09T00:04:05;2.47;;;1.35;;
69779;SDS011;57052;55.602;38.096;2022-09-09T00:09:19;3.47;;;1.55;;
69779;SDS011;57052;55.602;38.096;2022-09-09T00:20:19;3.25;;;1.65;;
69779;SDS011;57052;55.602;38.096;2022-09-09T00:25:58;3.30;;;1.63;;
69779;SDS011;57052;55.602;38.096;2022-09-09T00:28:25;5.00;;;2.08;;
69779;SDS011;57052;55.602;38.096;2022-09-09T00:30:52;3.88;;;1.63;;
69779;SDS011;57052;55.602;38.096;2022-09-09T00:33:20;4.20;;;1.70;;
69779;SDS011;57052;55.602;38.096;2022-09-09T00:35:49;4.07;;;1.70;;
69779;SDS011;57052;55.602;38.096;2022-09-09T00:38:19;3.92;;;1.63;;
69779;SDS011;57052;55.602;38.096;2022-09-09T00:41:14;4.07;;;1.83;;
69779;SDS011;57052;55.602;38.096;2022-09-09T00:43:41;3.40;;;1.80;;
69779;SDS011;57052;55.602;38.096;2022-09-09T00:48:45;3.40;;;1.73;;
69779;SDS011;57052;55.602;38.096;2022-09-09T00:51:35;3.67;;;1.80;;
69779;SDS011;57052;55.602;38.096;2022-09-09T00:54:33;5.60;;;1.63;;
69779;SDS011;57052;55.602;38.096;2022-09-09T00:57:30;3.20;;;1.50;;
69779;SDS011;57052;55.602;38.096;2022-09-09T01:07:57;3.08;;;1.70;;
69779;SDS011;57052;55.602;38.096;2022-09-09T01:11:10;4.10;;;1.70;;
69779;SDS011;57052;55.602;38.096;2022-09-09T01:15:59;4.38;;;1.55;;
69779;SDS011;57052;55.602;38.096;2022-09-09T01:18:28;5.68;;;1.85;;
69779;SDS011;57052;55.602;38.096;2022-09-09T01:26:44;3.45;;;1.65;;
69779;SDS011;57052;55.602;38.096;2022-09-09T01:29:15;3.72;;;1.70;;
69779;SDS011;57052;55.602;38.096;2022-09-09T01:31:51;4.22;;;1.60;;
69779;SDS011;57052;55.602;38.096;2022-09-09T01:34:17;3.72;;;1.70;;
69779;SDS011;57052;55.602;38.096;2022-09-09T01:39:29;3.40;;;1.70;;
69779;SDS011;57052;55.602;38.096;2022-09-09T01:41:56;4.05;;;1.85;;
69779;SDS011;57052;55.602;38.096;2022-09-09T01:44:22;4.07;;;1.85;;
69779;SDS011;57052;55.602;38.096;2022-09-09T01:46:49;3.80;;;2.05;;
69779;SDS011;57052;55.602;38.096;2022-09-09T01:49:15;5.15;;;2.33;;
69779;SDS011;57052;55.602;38.096;2022-09-09T01:51:41;5.72;;;3.08;;
69779;SDS011;57052;55.602;38.096;2022-09-09T01:54:08;5.80;;;2.92;;
69779;SDS011;57052;55.602;38.096;2022-09-09T01:59:27;7.00;;;3.20;;
69779;SDS011;57052;55.602;38.096;2022-09-09T02:02:18;5.97;;;3.20;;
69779;SDS011;57052;55.602;38.096;2022-09-09T02:05:34;5.65;;;2.83;;
69779;SDS011;57052;55.602;38.096;2022-09-09T02:13:21;6.85;;;3.08;;
69779;SDS011;57052;55.602;38.096;2022-09-09T02:18:26;5.13;;;2.38;;
69779;SDS011;57052;55.602;38.096;2022-09-09T02:20:54;6.07;;;2.38;;
69779;SDS011;57052;55.602;38.096;2022-09-09T02:23:22;4.15;;;2.30;;
69779;SDS011;57052;55.602;38.096;2022-09-09T02:25:49;5.72;;;2.47;;
69779;SDS011;57052;55.602;38.096;2022-09-09T02:28:18;6.03;;;2.50;;
69779;SDS011;57052;55.602;38.096;2022-09-09T02:30:46;5.45;;;2.67;;
69779;SDS011;57052;55.602;38.096;2022-09-09T02:33:20;7.20;;;3.50;;
69779;SDS011;57052;55.602;38.096;2022-09-09T02:35:50;8.13;;;4.07;;
69779;SDS011;57052;55.602;38.096;2022-09-09T02:38:17;10.35;;;5.20;;
69779;SDS011;57052;55.602;38.096;2022-09-09T02:40:44;9.65;;;5.05;;
69779;SDS011;57052;55.602;38.096;2022-09-09T02:43:10;9.73;;;4.72;;
69779;SDS011;57052;55.602;38.096;2022-09-09T02:45:39;7.97;;;4.22;;
69779;SDS011;57052;55.602;38.096;2022-09-09T02:51:17;5.60;;;3.20;;
69779;SDS011;57052;55.602;38.096;2022-09-09T02:57:17;4.20;;;1.98;;
69779;SDS011;57052;55.602;38.096;2022-09-09T02:59:47;3.35;;;1.83;;
69779;SDS011;57052;55.602;38.096;2022-09-09T03:02:14;8.05;;;2.72;;
69779;SDS011;57052;55.602;38.096;2022-09-09T03:04:40;11.43;;;5.45;;
69779;SDS011;57052;55.602;38.096;2022-09-09T03:07:08;18.83;;;10.63;;
69779;SDS011;57052;55.602;38.096;2022-09-09T03:09:35;23.25;;;14.38;;
69779;SDS011;57052;55.602;38.096;2022-09-09T03:12:00;19.85;;;13.00;;
69779;SDS011;57052;55.602;38.096;2022-09-09T03:14:26;17.85;;;9.30;;
69779;SDS011;57052;55.602;38.096;2022-09-09T03:16:52;13.63;;;8.85;;
69779;SDS011;57052;55.602;38.096;2022-09-09T03:19:18;11.60;;;7.60;;
69779;SDS011;57052;55.602;38.096;2022-09-09T03:21:45;10.43;;;6.10;;
69779;SDS011;57052;55.602;38.096;2022-09-09T03:24:11;10.10;;;5.07;;
69779;SDS011;57052;55.602;38.096;2022-09-09T03:26:36;6.65;;;4.15;;
69779;SDS011;57052;55.602;38.096;2022-09-09T03:29:03;6.38;;;3.80;;
69779;SDS011;57052;55.602;38.096;2022-09-09T03:31:32;5.88;;;3.10;;
69779;SDS011;57052;55.602;38.096;2022-09-09T03:33:58;5.00;;;2.47;;
69779;SDS011;57052;55.602;38.096;2022-09-09T03:36:24;4.28;;;2.08;;
69779;SDS011;57052;55.602;38.096;2022-09-09T03:38:51;3.85;;;2.05;;
69779;SDS011;57052;55.602;38.096;2022-09-09T03:41:18;5.03;;;2.17;;
69779;SDS011;57052;55.602;38.096;2022-09-09T03:43:44;5.03;;;1.90;;
69779;SDS011;57052;55.602;38.096;2022-09-09T03:46:10;4.25;;;1.92;;
69779;SDS011;57052;55.602;38.096;2022-09-09T03:48:35;3.08;;;1.65;;
69779;SDS011;57052;55.602;38.096;2022-09-09T03:51:01;2.88;;;1.98;;
69779;SDS011;57052;55.602;38.096;2022-09-09T03:53:28;6.05;;;3.88;;
69779;SDS011;57052;55.602;38.096;2022-09-09T03:55:55;11.07;;;6.63;;
69779;SDS011;57052;55.602;38.096;2022-09-09T03:58:24;11.75;;;7.05;;
69779;SDS011;57052;55.602;38.096;2022-09-09T04:01:02;14.80;;;8.15;;
69779;SDS011;57052;55.602;38.096;2022-09-09T04:03:29;13.00;;;7.05;;
69779;SDS011;57052;55.602;38.096;2022-09-09T04:05:56;12.65;;;6.63;;
69779;SDS011;57052;55.602;38.096;2022-09-09T04:08:24;9.02;;;4.78;;
69779;SDS011;57052;55.602;38.096;2022-09-09T04:10:53;6.47;;;4.40;;
69779;SDS011;57052;55.602;38.096;2022-09-09T04:13:23;7.50;;;3.40;;
69779;SDS011;57052;55.602;38.096;2022-09-09T04:18:23;4.18;;;2.05;;
69779;SDS011;57052;55.602;38.096;2022-09-09T04:20:49;3.05;;;1.75;;
69779;SDS011;57052;55.602;38.096;2022-09-09T04:23:16;5.28;;;1.40;;
69779;SDS011;57052;55.602;38.096;2022-09-09T04:25:50;3.97;;;1.60;;
69779;SDS011;57052;55.602;38.096;2022-09-09T04:28:17;3.17;;;1.42;;
69779;SDS011;57052;55.602;38.096;2022-09-09T04:30:44;4.28;;;1.40;;
69779;SDS011;57052;55.602;38.096;2022-09-09T04:33:10;2.78;;;1.40;;
69779;SDS011;57052;55.602;38.096;2022-09-09T04:35:36;3.78;;;1.52;;
69779;SDS011;57052;55.602;38.096;2022-09-09T04:38:03;2.58;;;1.38;;
69779;SDS011;57052;55.602;38.096;2022-09-09T04:40:30;3.08;;;1.20;;
69779;SDS011;57052;55.602;38.096;2022-09-09T04:42:59;4.90;;;1.50;;
69779;SDS011;57052;55.602;38.096;2022-09-09T04:45:25;2.47;;;1.33;;
69779;SDS011;57052;55.602;38.096;2022-09-09T04:47:51;3.08;;;1.30;;
69779;SDS011;57052;55.602;38.096;2022-09-09T04:50:17;3.20;;;1.60;;
69779;SDS011;57052;55.602;38.096;2022-09-09T04:52:44;3.33;;;1.30;;
69779;SDS011;57052;55.602;38.096;2022-09-09T04:55:09;3.88;;;1.50;;
69779;SDS011;57052;55.602;38.096;2022-09-09T04:57:35;2.65;;;1.60;;
69779;SDS011;57052;55.602;38.096;2022-09-09T05:00:01;2.35;;;1.40;;
69779;SDS011;57052;55.602;38.096;2022-09-09T05:02:29;2.20;;;1.25;;
69779;SDS011;57052;55.602;38.096;2022-09-09T05:04:55;2.35;;;1.20;;
69779;SDS011;57052;55.602;38.096;2022-09-09T05:07:21;3.15;;;1.45;;
69779;SDS011;57052;55.602;38.096;2022-09-09T05:09:47;2.70;;;1.30;;
69779;SDS011;57052;55.602;38.096;2022-09-09T05:12:14;3.47;;;1.30;;
69779;SDS011;57052;55.602;38.096;2022-09-09T05:14:42;3.13;;;1.55;;
69779;SDS011;57052;55.602;38.096;2022-09-09T05:17:09;2.22;;;1.30;;
69779;SDS011;57052;55.602;38.096;2022-09-09T05:19:35;3.13;;;1.33;;
69779;SDS011;57052;55.602;38.096;2022-09-09T05:22:01;2.40;;;1.23;;
69779;SDS011;57052;55.602;38.096;2022-09-09T05:24:27;2.90;;;1.33;;
69779;SDS011;57052;55.602;38.096;2022-09-09T05:26:53;2.55;;;1.10;;
69779;SDS011;57052;55.602;38.096;2022-09-09T05:29:23;2.58;;;0.93;;
69779;SDS011;57052;55.602;38.096;2022-09-09T05:31:49;3.33;;;1.50;;
69779;SDS011;57052;55.602;38.096;2022-09-09T05:34:14;2.60;;;1.15;;
69779;SDS011;57052;55.602;38.096;2022-09-09T05:36:40;4.78;;;2.42;;
69779;SDS011;57052;55.602;38.096;2022-09-09T05:39:06;2.65;;;1.30;;
69779;SDS011;57052;55.602;38.096;2022-09-09T05:41:31;2.65;;;1.02;;
69779;SDS011;57052;55.602;38.096;2022-09-09T05:43:57;2.80;;;1.10;;
69779;SDS011;57052;55.602;38.096;2022-09-09T05:46:26;4.00;;;1.20;;
69779;SDS011;57052;55.602;38.096;2022-09-09T05:48:52;2.97;;;1.10;;
69779;SDS011;57052;55.602;38.096;2022-09-09T05:51:19;1.50;;;1.00;;
69779;SDS011;57052;55.602;38.096;2022-09-09T05:53:49;2.47;;;1.10;;
69779;SDS011;57052;55.602;38.096;2022-09-09T05:56:23;2.95;;;1.15;;
69779;SDS011;57052;55.602;38.096;2022-09-09T05:58:51;1.83;;;1.17;;
69779;SDS011;57052;55.602;38.096;2022-09-09T06:01:23;1.90;;;1.10;;
69779;SDS011;57052;55.602;38.096;2022-09-09T06:03:50;1.70;;;1.00;;
69779;SDS011;57052;55.602;38.096;2022-09-09T06:06:17;2.78;;;1.30;;
69779;SDS011;57052;55.602;38.096;2022-09-09T06:08:48;2.00;;;1.10;;
69779;SDS011;57052;55.602;38.096;2022-09-09T06:13:43;2.22;;;1.20;;
69779;SDS011;57052;55.602;38.096;2022-09-09T06:16:09;2.13;;;1.10;;
69779;SDS011;57052;55.602;38.096;2022-09-09T06:18:40;3.05;;;1.20;;
69779;SDS011;57052;55.602;38.096;2022-09-09T06:21:08;2.35;;;0.98;;
69779;SDS011;57052;55.602;38.096;2022-09-09T06:23:39;2.30;;;1.20;;
69779;SDS011;57052;55.602;38.096;2022-09-09T06:26:10;1.52;;;1.08;;
69779;SDS011;57052;55.602;38.096;2022-09-09T06:28:38;4.65;;;1.00;;
69779;SDS011;57052;55.602;38.096;2022-09-09T06:31:05;1.40;;;1.08;;
69779;SDS011;57052;55.602;38.096;2022-09-09T06:33:33;2.78;;;1.05;;
69779;SDS011;57052;55.602;38.096;2022-09-09T06:36:01;2.28;;;1.10;;
69779;SDS011;57052;55.602;38.096;2022-09-09T06:38:28;3.35;;;1.17;;
69779;SDS011;57052;55.602;38.096;2022-09-09T06:40:54;3.30;;;1.17;;
69779;SDS011;57052;55.602;38.096;2022-09-09T06:43:22;1.75;;;0.93;;
69779;SDS011;57052;55.602;38.096;2022-09-09T06:48:21;1.00;;;0.90;;
69779;SDS011;57052;55.602;38.096;2022-09-09T06:50:46;1.27;;;0.90;;
69779;SDS011;57052;55.602;38.096;2022-09-09T06:53:12;1.55;;;0.90;;
69779;SDS011;57052;55.602;38.096;2022-09-09T06:55:41;1.90;;;0.80;;
69779;SDS011;57052;55.602;38.096;2022-09-09T06:58:09;1.40;;;0.90;;
69779;SDS011;57052;55.602;38.096;2022-09-09T07:00:34;1.85;;;0.85;;
69779;SDS011;57052;55.602;38.096;2022-09-09T07:03:03;1.52;;;0.80;;
69779;SDS011;57052;55.602;38.096;2022-09-09T07:05:28;1.00;;;0.60;;
69779;SDS011;57052;55.602;38.096;2022-09-09T07:07:54;0.80;;;0.55;;
69779;SDS011;57052;55.602;38.096;2022-09-09T07:10:19;1.20;;;0.57;;
69779;SDS011;57052;55.602;38.096;2022-09-09T07:12:45;1.77;;;0.60;;
69779;SDS011;57052;55.602;38.096;2022-09-09T07:15:16;6.18;;;3.25;;
69779;SDS011;57052;55.602;38.096;2022-09-09T07:17:43;3.28;;;1.30;;
69779;SDS011;57052;55.602;38.096;2022-09-09T07:20:10;1.42;;;0.77;;
69779;SDS011;57052;55.602;38.096;2022-09-09T07:22:36;1.88;;;0.73;;
69779;SDS011;57052;55.602;38.096;2022-09-09T07:25:02;0.82;;;0.60;;
69779;SDS011;57052;55.602;38.096;2022-09-09T07:27:28;0.70;;;0.60;;
69779;SDS011;57052;55.602;38.096;2022-09-09T07:29:54;1.13;;;0.70;;
69779;SDS011;57052;55.602;38.096;2022-09-09T07:32:19;1.67;;;0.60;;
69779;SDS011;57052;55.602;38.096;2022-09-09T07:34:45;2.90;;;0.80;;
69779;SDS011;57052;55.602;38.096;2022-09-09T07:37:12;1.65;;;0.60;;
69779;SDS011;57052;55.602;38.096;2022-09-09T07:39:39;1.60;;;0.80;;
69779;SDS011;57052;55.602;38.096;2022-09-09T07:42:05;3.55;;;0.82;;
69779;SDS011;57052;55.602;38.096;2022-09-09T07:44:30;1.30;;;0.70;;
69779;SDS011;57052;55.602;38.096;2022-09-09T07:47:00;1.88;;;0.80;;
69779;SDS011;57052;55.602;38.096;2022-09-09T07:49:26;1.85;;;0.80;;
69779;SDS011;57052;55.602;38.096;2022-09-09T07:51:52;1.95;;;0.93;;
69779;SDS011;57052;55.602;38.096;2022-09-09T07:54:18;1.98;;;0.85;;
69779;SDS011;57052;55.602;38.096;2022-09-09T07:56:48;1.98;;;0.82;;
69779;SDS011;57052;55.602;38.096;2022-09-09T07:59:15;0.85;;;0.68;;
69779;SDS011;57052;55.602;38.096;2022-09-09T08:01:45;1.00;;;0.70;;
69779;SDS011;57052;55.602;38.096;2022-09-09T08:04:13;1.38;;;0.70;;
69779;SDS011;57052;55.602;38.096;2022-09-09T08:06:45;1.23;;;0.80;;
69779;SDS011;57052;55.602;38.096;2022-09-09T08:09:17;1.40;;;0.70;;
69779;SDS011;57052;55.602;38.096;2022-09-09T08:11:42;1.75;;;0.52;;
69779;SDS011;57052;55.602;38.096;2022-09-09T08:14:09;1.42;;;0.85;;
69779;SDS011;57052;55.602;38.096;2022-09-09T08:16:40;0.60;;;0.60;;
69779;SDS011;57052;55.602;38.096;2022-09-09T08:19:11;1.13;;;0.80;;
69779;SDS011;57052;55.602;38.096;2022-09-09T08:21:38;1.80;;;0.80;;
69779;SDS011;57052;55.602;38.096;2022-09-09T08:24:05;3.78;;;0.85;;
69779;SDS011;57052;55.602;38.096;2022-09-09T08:26:35;3.22;;;0.80;;
69779;SDS011;57052;55.602;38.096;2022-09-09T08:29:09;0.90;;;0.80;;
69779;SDS011;57052;55.602;38.096;2022-09-09T08:31:37;1.23;;;0.70;;
69779;SDS011;57052;55.602;38.096;2022-09-09T08:34:07;1.60;;;0.80;;
69779;SDS011;57052;55.602;38.096;2022-09-09T08:36:35;0.95;;;0.80;;
69779;SDS011;57052;55.602;38.096;2022-09-09T08:39:04;1.17;;;0.70;;
69779;SDS011;57052;55.602;38.096;2022-09-09T08:50:19;0.70;;;0.70;;
69779;SDS011;57052;55.602;38.096;2022-09-09T08:53:16;1.25;;;0.90;;
69779;SDS011;57052;55.602;38.096;2022-09-09T08:55:49;3.58;;;0.80;;
69779;SDS011;57052;55.602;38.096;2022-09-09T09:04:04;1.00;;;0.70;;
69779;SDS011;57052;55.602;38.096;2022-09-09T09:06:50;1.10;;;0.70;;
69779;SDS011;57052;55.602;38.096;2022-09-09T09:09:48;1.20;;;0.80;;
69779;SDS011;57052;55.602;38.096;2022-09-09T09:12:35;2.72;;;1.02;;
69779;SDS011;57052;55.602;38.096;2022-09-09T09:15:25;1.10;;;0.73;;
69779;SDS011;57052;55.602;38.096;2022-09-09T09:17:55;1.13;;;0.82;;
69779;SDS011;57052;55.602;38.096;2022-09-09T09:20:23;1.65;;;0.90;;
69779;SDS011;57052;55.602;38.096;2022-09-09T09:23:00;1.08;;;0.80;;
69779;SDS011;57052;55.602;38.096;2022-09-09T09:25:34;0.90;;;0.70;;
69779;SDS011;57052;55.602;38.096;2022-09-09T09:28:07;1.67;;;1.00;;
69779;SDS011;57052;55.602;38.096;2022-09-09T09:30:44;1.08;;;0.93;;
69779;SDS011;57052;55.602;38.096;2022-09-09T09:33:23;1.45;;;0.75;;
69779;SDS011;57052;55.602;38.096;2022-09-09T09:35:52;1.45;;;0.82;;
69779;SDS011;57052;55.602;38.096;2022-09-09T09:38:20;1.00;;;0.80;;
69779;SDS011;57052;55.602;38.096;2022-09-09T09:40:54;1.40;;;0.75;;
69779;SDS011;57052;55.602;38.096;2022-09-09T09:43:28;1.50;;;0.80;;
69779;SDS011;57052;55.602;38.096;2022-09-09T09:46:05;1.25;;;0.70;;
69779;SDS011;57052;55.602;38.096;2022-09-09T09:48:31;0.93;;;0.70;;
69779;SDS011;57052;55.602;38.096;2022-09-09T09:50:58;0.93;;;0.70;;
69779;SDS011;57052;55.602;38.096;2022-09-09T09:53:36;0.88;;;0.70;;
69779;SDS011;57052;55.602;38.096;2022-09-09T09:56:05;1.33;;;0.85;;
69779;SDS011;57052;55.602;38.096;2022-09-09T09:58:34;1.35;;;0.80;;
69779;SDS011;57052;55.602;38.096;2022-09-09T10:01:28;2.03;;;0.80;;
69779;SDS011;57052;55.602;38.096;2022-09-09T10:03:59;2.63;;;1.42;;
69779;SDS011;57052;55.602;38.096;2022-09-09T10:06:33;2.45;;;1.00;;
69779;SDS011;57052;55.602;38.096;2022-09-09T10:09:03;1.35;;;0.80;;
69779;SDS011;57052;55.602;38.096;2022-09-09T10:11:41;5.43;;;1.88;;
69779;SDS011;57052;55.602;38.096;2022-09-09T10:14:21;7.90;;;3.58;;
69779;SDS011;57052;55.602;38.096;2022-09-09T10:17:14;2.60;;;1.50;;
69779;SDS011;57052;55.602;38.096;2022-09-09T10:22:35;1.98;;;0.95;;
69779;SDS011;57052;55.602;38.096;2022-09-09T10:36:12;1.50;;;0.90;;
69779;SDS011;57052;55.602;38.096;2022-09-09T10:39:06;1.83;;;1.00;;
69779;SDS011;57052;55.602;38.096;2022-09-09T10:41:58;2.30;;;1.23;;
69779;SDS011;57052;55.602;38.096;2022-09-09T10:55:45;1.95;;;1.20;;
69779;SDS011;57052;55.602;38.096;2022-09-09T10:58:23;2.22;;;1.08;;
69779;SDS011;57052;55.602;38.096;2022-09-09T11:00:57;1.80;;;1.00;;
69779;SDS011;57052;55.602;38.096;2022-09-09T11:03:32;2.08;;;0.90;;
69779;SDS011;57052;55.602;38.096;2022-09-09T11:08:32;1.52;;;0.90;;
69779;SDS011;57052;55.602;38.096;2022-09-09T11:19:03;2.15;;;0.90;;
69779;SDS011;57052;55.602;38.096;2022-09-09T11:21:40;1.13;;;0.88;;
69779;SDS011;57052;55.602;38.096;2022-09-09T11:24:16;1.60;;;0.82;;
69779;SDS011;57052;55.602;38.096;2022-09-09T11:26:49;1.48;;;0.82;;
69779;SDS011;57052;55.602;38.096;2022-09-09T11:29:30;2.33;;;0.98;;
69779;SDS011;57052;55.602;38.096;2022-09-09T11:32:38;1.42;;;0.77;;
69779;SDS011;57052;55.602;38.096;2022-09-09T11:40:40;1.45;;;0.90;;
69779;SDS011;57052;55.602;38.096;2022-09-09T11:43:10;1.30;;;0.90;;
69779;SDS011;57052;55.602;38.096;2022-09-09T11:45:39;1.30;;;0.80;;
69779;SDS011;57052;55.602;38.096;2022-09-09T11:48:22;1.95;;;0.85;;
69779;SDS011;57052;55.602;38.096;2022-09-09T11:51:02;1.70;;;1.00;;
69779;SDS011;57052;55.602;38.096;2022-09-09T11:53:33;1.75;;;0.90;;
69779;SDS011;57052;55.602;38.096;2022-09-09T11:56:01;3.40;;;1.27;;
69779;SDS011;57052;55.602;38.096;2022-09-09T11:58:44;4.38;;;1.30;;
69779;SDS011;57052;55.602;38.096;2022-09-09T12:06:54;4.60;;;1.40;;
69779;SDS011;57052;55.602;38.096;2022-09-09T12:09:30;3.03;;;1.20;;
69779;SDS011;57052;55.602;38.096;2022-09-09T12:14:42;2.40;;;1.20;;
69779;SDS011;57052;55.602;38.096;2022-09-09T12:17:22;2.38;;;1.00;;
69779;SDS011;57052;55.602;38.096;2022-09-09T12:23:13;2.10;;;1.20;;
69779;SDS011;57052;55.602;38.096;2022-09-09T12:26:30;2.13;;;1.00;;
69779;SDS011;57052;55.602;38.096;2022-09-09T12:28:44;2.78;;;1.40;;
69779;SDS011;57052;55.602;38.096;2022-09-09T12:32:00;1.60;;;0.90;;
69779;SDS011;57052;55.602;38.096;2022-09-09T12:40:02;1.70;;;0.88;;
69779;SDS011;57052;55.602;38.096;2022-09-09T12:42:43;1.83;;;1.00;;
69779;SDS011;57052;55.602;38.096;2022-09-09T12:45:42;2.05;;;1.10;;
69779;SDS011;57052;55.602;38.096;2022-09-09T12:48:07;2.63;;;1.27;;
69779;SDS011;57052;55.602;38.096;2022-09-09T12:50:47;5.28;;;1.40;;
69779;SDS011;57052;55.602;38.096;2022-09-09T12:53:19;2.45;;;1.10;;
69779;SDS011;57052;55.602;38.096;2022-09-09T12:55:53;2.17;;;1.33;;
69779;SDS011;57052;55.602;38.096;2022-09-09T12:58:32;2.55;;;1.20;;
69779;SDS011;57052;55.602;38.096;2022-09-09T13:01:00;3.80;;;1.50;;
69779;SDS011;57052;55.602;38.096;2022-09-09T13:03:30;4.32;;;1.52;;
69779;SDS011;57052;55.602;38.096;2022-09-09T13:05:58;4.13;;;1.58;;
69779;SDS011;57052;55.602;38.096;2022-09-09T13:08:36;3.60;;;1.50;;
69779;SDS011;57052;55.602;38.096;2022-09-09T13:11:03;3.53;;;1.58;;
69779;SDS011;57052;55.602;38.096;2022-09-09T13:13:36;3.03;;;1.58;;
69779;SDS011;57052;55.602;38.096;2022-09-09T13:16:04;3.78;;;1.60;;
69779;SDS011;57052;55.602;38.096;2022-09-09T13:18:37;3.58;;;1.30;;
69779;SDS011;57052;55.602;38.096;2022-09-09T13:21:07;2.42;;;1.15;;
69779;SDS011;57052;55.602;38.096;2022-09-09T13:23:33;1.90;;;1.08;;
69779;SDS011;57052;55.602;38.096;2022-09-09T13:26:34;2.67;;;1.10;;
69779;SDS011;57052;55.602;38.096;2022-09-09T13:28:53;2.25;;;1.20;;
69779;SDS011;57052;55.602;38.096;2022-09-09T13:31:24;3.45;;;1.60;;
69779;SDS011;57052;55.602;38.096;2022-09-09T13:33:49;1.52;;;1.00;;
69779;SDS011;57052;55.602;38.096;2022-09-09T13:36:15;2.17;;;0.90;;
69779;SDS011;57052;55.602;38.096;2022-09-09T13:38:54;3.13;;;1.00;;
69779;SDS011;57052;55.602;38.096;2022-09-09T13:41:23;2.90;;;1.10;;
69779;SDS011;57052;55.602;38.096;2022-09-09T13:43:51;0.98;;;0.77;;
69779;SDS011;57052;55.602;38.096;2022-09-09T13:46:37;1.90;;;0.90;;
69779;SDS011;57052;55.602;38.096;2022-09-09T13:54:03;2.22;;;0.90;;
69779;SDS011;57052;55.602;38.096;2022-09-09T13:56:31;2.58;;;1.27;;
69779;SDS011;57052;55.602;38.096;2022-09-09T13:59:00;2.05;;;1.27;;
69779;SDS011;57052;55.602;38.096;2022-09-09T14:01:27;2.10;;;1.17;;
69779;SDS011;57052;55.602;38.096;2022-09-09T14:03:52;2.75;;;1.15;;
69779;SDS011;57052;55.602;38.096;2022-09-09T14:06:18;2.88;;;1.27;;
69779;SDS011;57052;55.602;38.096;2022-09-09T14:08:47;3.85;;;1.40;;
69779;SDS011;57052;55.602;38.096;2022-09-09T14:11:14;3.83;;;1.50;;
69779;SDS011;57052;55.602;38.096;2022-09-09T14:13:40;4.57;;;1.63;;
69779;SDS011;57052;55.602;38.096;2022-09-09T14:16:05;4.20;;;1.63;;
69779;SDS011;57052;55.602;38.096;2022-09-09T14:18:31;5.63;;;1.83;;
69779;SDS011;57052;55.602;38.096;2022-09-09T14:20:57;3.33;;;1.63;;
69779;SDS011;57052;55.602;38.096;2022-09-09T14:23:23;4.65;;;2.10;;
69779;SDS011;57052;55.602;38.096;2022-09-09T14:25:49;5.00;;;1.77;;
69779;SDS011;57052;55.602;38.096;2022-09-09T14:28:16;3.15;;;1.25;;
69779;SDS011;57052;55.602;38.096;2022-09-09T14:30:42;4.35;;;1.42;;
69779;SDS011;57052;55.602;38.096;2022-09-09T14:33:13;2.08;;;1.00;;
69779;SDS011;57052;55.602;38.096;2022-09-09T14:35:40;2.58;;;1.25;;
69779;SDS011;57052;55.602;38.096;2022-09-09T14:38:07;3.42;;;1.27;;
69779;SDS011;57052;55.602;38.096;2022-09-09T14:40:36;2.40;;;1.20;;
69779;SDS011;57052;55.602;38.096;2022-09-09T14:43:03;2.63;;;1.02;;
69779;SDS011;57052;55.602;38.096;2022-09-09T14:45:29;1.88;;;0.82;;
69779;SDS011;57052;55.602;38.096;2022-09-09T14:47:55;2.75;;;1.17;;
69779;SDS011;57052;55.602;38.096;2022-09-09T14:50:21;2.85;;;1.15;;
69779;SDS011;57052;55.602;38.096;2022-09-09T14:52:48;2.05;;;0.95;;
69779;SDS011;57052;55.602;38.096;2022-09-09T14:55:14;3.83;;;1.08;;
69779;SDS011;57052;55.602;38.096;2022-09-09T14:57:40;2.80;;;0.90;;
69779;SDS011;57052;55.602;38.096;2022-09-09T15:00:07;2.15;;;1.00;;
69779;SDS011;57052;55.602;38.096;2022-09-09T15:02:35;5.82;;;1.25;;
69779;SDS011;57052;55.602;38.096;2022-09-09T15:05:00;2.00;;;1.08;;
69779;SDS011;57052;55.602;38.096;2022-09-09T15:07:29;2.45;;;1.10;;
69779;SDS011;57052;55.602;38.096;2022-09-09T15:09:54;3.72;;;1.10;;
69779;SDS011;57052;55.602;38.096;2022-09-09T15:12:20;2.60;;;1.30;;
69779;SDS011;57052;55.602;38.096;2022-09-09T15:14:46;2.42;;;1.20;;
69779;SDS011;57052;55.602;38.096;2022-09-09T15:17:11;4.05;;;1.30;;
69779;SDS011;57052;55.602;38.096;2022-09-09T15:19:37;3.40;;;1.40;;
69779;SDS011;57052;55.602;38.096;2022-09-09T15:22:05;3.33;;;1.55;;
69779;SDS011;57052;55.602;38.096;2022-09-09T15:24:32;2.88;;;1.45;;
69779;SDS011;57052;55.602;38.096;2022-09-09T15:26:58;3.70;;;1.73;;
69779;SDS011;57052;55.602;38.096;2022-09-09T15:29:24;7.07;;;1.83;;
69779;SDS011;57052;55.602;38.096;2022-09-09T15:31:50;9.27;;;2.17;;
69779;SDS011;57052;55.602;38.096;2022-09-09T15:34:16;5.03;;;1.58;;
69779;SDS011;57052;55.602;38.096;2022-09-09T15:36:45;4.13;;;1.83;;
69779;SDS011;57052;55.602;38.096;2022-09-09T15:39:14;5.60;;;1.70;;
69779;SDS011;57052;55.602;38.096;2022-09-09T15:41:42;2.65;;;1.58;;
69779;SDS011;57052;55.602;38.096;2022-09-09T15:44:09;5.95;;;1.65;;
69779;SDS011;57052;55.602;38.096;2022-09-09T15:46:38;5.18;;;1.80;;
69779;SDS011;57052;55.602;38.096;2022-09-09T15:49:09;3.85;;;2.03;;
69779;SDS011;57052;55.602;38.096;2022-09-09T15:51:36;8.48;;;2.20;;
69779;SDS011;57052;55.602;38.096;2022-09-09T15:54:03;5.50;;;2.67;;
69779;SDS011;57052;55.602;38.096;2022-09-09T15:56:29;5.47;;;2.50;;
69779;SDS011;57052;55.602;38.096;2022-09-09T15:58:58;5.70;;;2.42;;
69779;SDS011;57052;55.602;38.096;2022-09-09T16:01:25;6.65;;;2.70;;
69779;SDS011;57052;55.602;38.096;2022-09-09T16:03:52;4.53;;;2.45;;
69779;SDS011;57052;55.602;38.096;2022-09-09T16:06:18;9.73;;;3.88;;
69779;SDS011;57052;55.602;38.096;2022-09-09T16:08:47;10.18;;;4.72;;
69779;SDS011;57052;55.602;38.096;2022-09-09T16:11:18;11.88;;;5.38;;
69779;SDS011;57052;55.602;38.096;2022-09-09T16:13:46;13.30;;;5.75;;
69779;SDS011;57052;55.602;38.096;2022-09-09T16:16:14;13.55;;;5.85;;
69779;SDS011;57052;55.602;38.096;2022-09-09T16:18:42;14.73;;;5.97;;
69779;SDS011;57052;55.602;38.096;2022-09-09T16:21:14;17.88;;;7.63;;
69779;SDS011;57052;55.602;38.096;2022-09-09T16:23:42;19.33;;;7.72;;
69779;SDS011;57052;55.602;38.096;2022-09-09T16:26:10;18.73;;;8.02;;
69779;SDS011;57052;55.602;38.096;2022-09-09T16:28:37;20.88;;;8.40;;
69779;SDS011;57052;55.602;38.096;2022-09-09T16:31:06;19.25;;;8.30;;
69779;SDS011;57052;55.602;38.096;2022-09-09T16:33:32;16.45;;;8.18;;
69779;SDS011;57052;55.602;38.096;2022-09-09T16:35:58;17.05;;;7.97;;
69779;SDS011;57052;55.602;38.096;2022-09-09T16:38:29;15.02;;;7.18;;
69779;SDS011;57052;55.602;38.096;2022-09-09T16:40:58;20.60;;;8.00;;
69779;SDS011;57052;55.602;38.096;2022-09-09T16:43:24;18.95;;;8.25;;
69779;SDS011;57052;55.602;38.096;2022-09-09T16:45:50;20.40;;;7.32;;
69779;SDS011;57052;55.602;38.096;2022-09-09T16:48:16;18.63;;;7.63;;
69779;SDS011;57052;55.602;38.096;2022-09-09T16:50:41;20.67;;;7.40;;
69779;SDS011;57052;55.602;38.096;2022-09-09T16:53:07;17.05;;;7.22;;
69779;SDS011;57052;55.602;38.096;2022-09-09T16:55:37;15.50;;;7.03;;
69779;SDS011;57052;55.602;38.096;2022-09-09T16:58:08;15.98;;;7.15;;
69779;SDS011;57052;55.602;38.096;2022-09-09T17:00:36;14.75;;;6.57;;
69779;SDS011;57052;55.602;38.096;2022-09-09T17:03:02;18.13;;;7.10;;
69779;SDS011;57052;55.602;38.096;2022-09-09T17:05:28;15.15;;;6.88;;
69779;SDS011;57052;55.602;38.096;2022-09-09T17:07:54;16.20;;;7.82;;
69779;SDS011;57052;55.602;38.096;2022-09-09T17:10:24;18.25;;;8.07;;